Time;durP1;ratioP1;P1;durP2;ratioP2;P2;SDS_P1;SDS_P2;PMS_P1;PMS_P2;Temp;Humidity;BMP_temperature;BMP_pressure;BME280_temperature;BME280_humidity;BME280_pressure;Samples;Min_cycle;Max_cycle;Signal;HPM_P1;HPM_P2
2021/09/02 00:02:06;;;;;;;12.82;7.63;;;9.40;98.00;;;;;;5073152;28;20457;-69
2021/09/02 00:04:32;;;;;;;11.38;6.43;;;9.50;98.00;;;;;;5071543;28;20122;-72
2021/09/02 00:06:59;;;;;;;11.38;6.95;;;9.40;98.00;;;;;;5073130;28;20119;-70
2021/09/02 00:09:25;;;;;;;15.10;7.70;;;9.30;98.00;;;;;;5071502;28;20081;-71
2021/09/02 00:11:51;;;;;;;12.63;7.85;;;9.30;98.00;;;;;;5056247;28;20036;-71
2021/09/02 00:14:17;;;;;;;14.13;8.13;;;9.30;98.00;;;;;;5073067;28;20029;-70
2021/09/02 00:16:43;;;;;;;11.98;7.43;;;9.30;98.00;;;;;;5065490;28;20028;-72
2021/09/02 00:19:09;;;;;;;11.30;6.53;;;9.20;98.00;;;;;;5070635;28;20025;-70
2021/09/02 00:21:37;;;;;;;11.63;6.43;;;9.20;98.00;;;;;;5069572;28;20048;-70
2021/09/02 00:24:03;;;;;;;10.45;6.15;;;9.00;98.00;;;;;;5070082;28;20028;-71
2021/09/02 00:26:31;;;;;;;12.77;6.75;;;8.90;98.00;;;;;;5074906;28;20162;-71
2021/09/02 00:28:57;;;;;;;10.77;6.53;;;8.80;98.00;;;;;;5066849;28;20061;-71
2021/09/02 00:31:22;;;;;;;10.88;6.85;;;8.70;98.00;;;;;;5074153;28;20099;-71
2021/09/02 00:33:49;;;;;;;15.18;6.38;;;8.60;98.00;;;;;;5074823;28;20074;-71
2021/09/02 00:36:15;;;;;;;10.82;7.03;;;8.50;98.00;;;;;;5073801;28;20487;-70
2021/09/02 00:38:40;;;;;;;10.13;6.82;;;8.50;98.00;;;;;;5072357;28;20119;-71
2021/09/02 00:41:06;;;;;;;13.55;8.27;;;8.50;98.00;;;;;;5072034;28;20032;-71
2021/09/02 00:43:39;;;;;;;13.90;7.88;;;8.50;98.00;;;;;;5073184;28;20024;-71
2021/09/02 00:46:08;;;;;;;19.57;8.30;;;8.40;98.00;;;;;;5070175;28;20032;-71
2021/09/02 00:48:35;;;;;;;12.90;7.65;;;8.40;98.00;;;;;;5066506;28;20271;-71
2021/09/02 00:51:00;;;;;;;13.90;8.40;;;8.40;98.00;;;;;;5068324;28;20021;-70
2021/09/02 00:53:26;;;;;;;15.95;8.00;;;8.30;98.00;;;;;;5068199;28;20150;-71
2021/09/02 00:55:52;;;;;;;11.50;7.68;;;8.30;98.00;;;;;;5075689;28;20017;-71
2021/09/02 00:58:21;;;;;;;11.90;7.45;;;8.30;98.00;;;;;;5066001;28;20035;-71
2021/09/02 01:00:48;;;;;;;13.20;7.80;;;8.40;98.00;;;;;;5060190;28;20028;-71
2021/09/02 01:03:18;;;;;;;12.43;7.50;;;8.30;97.90;;;;;;5070552;28;20025;-71
2021/09/02 01:05:45;;;;;;;12.18;7.95;;;8.30;98.00;;;;;;5064189;28;20442;-71
2021/09/02 01:08:11;;;;;;;14.45;7.63;;;8.30;98.00;;;;;;5071913;28;20032;-72
2021/09/02 01:10:40;;;;;;;14.27;8.80;;;8.30;98.00;;;;;;5072906;28;20056;-71
2021/09/02 01:13:05;;;;;;;11.32;7.30;;;8.30;97.50;;;;;;5068175;28;20025;-71
2021/09/02 01:15:31;;;;;;;14.85;8.15;;;8.30;97.90;;;;;;5062539;28;20037;-71
2021/09/02 01:17:58;;;;;;;12.35;8.02;;;8.20;97.20;;;;;;5061929;28;20036;-71
2021/09/02 01:20:26;;;;;;;13.23;7.97;;;8.20;97.90;;;;;;5060014;28;20021;-71
2021/09/02 01:22:54;;;;;;;13.48;7.40;;;8.20;97.60;;;;;;5064202;28;20017;-71
2021/09/02 01:25:24;;;;;;;12.38;7.35;;;8.20;97.60;;;;;;5061222;28;20024;-71
2021/09/02 01:27:55;;;;;;;14.70;8.38;;;8.10;97.50;;;;;;5073505;28;20024;-70
2021/09/02 01:30:21;;;;;;;13.48;8.23;;;8.10;97.80;;;;;;5073519;28;20107;-71
2021/09/02 01:32:49;;;;;;;12.30;7.68;;;8.10;97.90;;;;;;5063423;28;20414;-71
2021/09/02 01:35:17;;;;;;;12.52;7.85;;;8.10;97.30;;;;;;5057893;28;20029;-71
2021/09/02 01:38:05;;;;;;;14.57;8.57;;;8.00;97.90;;;;;;5062913;28;20025;-71
2021/09/02 01:40:43;;;;;;;12.43;8.07;;;8.00;97.60;;;;;;5063980;28;20337;-71
2021/09/02 01:43:11;;;;;;;12.05;7.70;;;7.90;97.70;;;;;;5075387;28;20282;-71
2021/09/02 01:45:45;;;;;;;12.32;7.70;;;7.90;97.30;;;;;;5067901;28;20105;-71
2021/09/02 01:48:10;;;;;;;13.53;8.77;;;7.90;97.00;;;;;;5063071;28;20425;-71
2021/09/02 01:50:40;;;;;;;14.65;7.80;;;7.90;97.00;;;;;;5069925;28;20306;-71
2021/09/02 01:53:13;;;;;;;13.40;8.40;;;7.90;97.30;;;;;;5075458;28;20060;-71
2021/09/02 01:55:40;;;;;;;11.75;7.40;;;8.00;96.60;;;;;;5059102;28;20025;-70
2021/09/02 01:58:06;;;;;;;11.43;7.28;;;8.00;96.70;;;;;;5058959;28;20040;-71
2021/09/02 02:00:33;;;;;;;13.77;7.60;;;8.00;97.20;;;;;;5063478;28;20021;-71
2021/09/02 02:02:59;;;;;;;13.55;8.73;;;8.00;96.80;;;;;;5074685;28;20031;-71
2021/09/02 02:05:25;;;;;;;18.85;8.55;;;8.00;96.40;;;;;;5071614;28;20052;-71
2021/09/02 02:07:51;;;;;;;13.98;7.90;;;8.00;96.70;;;;;;5072524;28;20028;-71
2021/09/02 02:10:26;;;;;;;13.20;8.10;;;8.00;97.30;;;;;;5061357;28;20405;-71
2021/09/02 02:12:55;;;;;;;10.75;7.20;;;7.80;97.00;;;;;;5058802;28;20104;-70
2021/09/02 02:15:21;;;;;;;11.00;7.28;;;7.80;96.40;;;;;;5069198;28;20109;-72
2021/09/02 02:17:46;;;;;;;12.05;7.22;;;7.90;96.10;;;;;;5066435;28;20111;-72
2021/09/02 02:20:13;;;;;;;14.73;7.95;;;7.90;96.10;;;;;;5072392;28;20017;-69
2021/09/02 02:22:39;;;;;;;15.10;8.20;;;8.00;96.10;;;;;;5069650;28;20423;-72
2021/09/02 02:25:07;;;;;;;12.50;7.28;;;8.00;96.50;;;;;;5065280;28;20048;-71
2021/09/02 02:27:36;;;;;;;16.10;8.85;;;8.00;96.60;;;;;;5069327;28;20111;-72
2021/09/02 02:30:05;;;;;;;14.98;8.32;;;8.00;96.80;;;;;;5077282;28;20059;-72
2021/09/02 02:32:31;;;;;;;14.90;9.02;;;8.00;97.00;;;;;;5071402;28;20038;-71
2021/09/02 02:34:56;;;;;;;13.32;8.32;;;8.00;96.90;;;;;;5069253;28;20311;-71
2021/09/02 02:37:22;;;;;;;12.73;7.80;;;7.90;97.20;;;;;;5072550;28;20044;-71
2021/09/02 02:39:48;;;;;;;13.73;8.45;;;7.90;96.80;;;;;;5071292;28;20032;-72
2021/09/02 02:42:18;;;;;;;13.40;7.28;;;7.90;96.80;;;;;;5076312;28;20032;-72
2021/09/02 02:44:44;;;;;;;11.55;7.38;;;7.90;96.40;;;;;;5066730;28;20100;-71
2021/09/02 02:47:10;;;;;;;12.20;7.65;;;7.80;96.80;;;;;;5063768;28;20083;-72
2021/09/02 02:49:37;;;;;;;13.63;8.15;;;7.80;96.60;;;;;;5072720;28;20389;-71
2021/09/02 02:52:03;;;;;;;18.48;8.73;;;7.90;96.30;;;;;;5062488;28;20025;-71
2021/09/02 02:54:28;;;;;;;15.52;8.52;;;7.90;96.60;;;;;;5067118;28;20032;-71
2021/09/02 02:56:54;;;;;;;11.85;7.82;;;7.90;96.00;;;;;;5075269;28;20055;-71
2021/09/02 02:59:20;;;;;;;15.60;9.23;;;8.00;96.10;;;;;;5069016;28;20035;-71
2021/09/02 03:01:45;;;;;;;14.40;8.55;;;8.10;96.30;;;;;;5067327;28;20029;-71
2021/09/02 03:04:11;;;;;;;12.85;8.18;;;8.10;96.10;;;;;;5060145;28;20025;-72
2021/09/02 03:06:36;;;;;;;14.80;8.75;;;8.10;95.40;;;;;;5061536;28;20433;-71
2021/09/02 03:09:03;;;;;;;12.07;8.10;;;8.20;95.80;;;;;;5070747;28;20035;-71
2021/09/02 03:11:30;;;;;;;13.13;8.32;;;8.20;95.90;;;;;;5067674;28;20037;-71
2021/09/02 03:13:55;;;;;;;16.52;8.23;;;8.30;96.00;;;;;;5059171;28;20068;-71
2021/09/02 03:16:21;;;;;;;14.07;8.50;;;8.40;95.90;;;;;;5070065;28;20060;-71
2021/09/02 03:18:47;;;;;;;13.85;8.82;;;8.40;95.70;;;;;;5064019;28;20032;-71
2021/09/02 03:21:12;;;;;;;15.75;8.40;;;8.50;96.30;;;;;;5070052;28;20048;-71
2021/09/02 03:23:38;;;;;;;14.15;8.65;;;8.50;96.50;;;;;;5065792;28;20029;-71
2021/09/02 03:26:04;;;;;;;14.73;8.90;;;8.50;97.00;;;;;;5064276;28;20021;-71
2021/09/02 03:28:30;;;;;;;13.65;8.52;;;8.50;97.50;;;;;;5065688;28;20027;-71
2021/09/02 03:30:55;;;;;;;15.20;8.65;;;8.50;97.80;;;;;;5070033;28;20117;-71
2021/09/02 03:33:21;;;;;;;14.02;8.57;;;8.50;97.90;;;;;;5071682;28;20072;-72
2021/09/02 03:35:47;;;;;;;16.58;9.02;;;8.50;97.90;;;;;;5069535;28;20127;-71
2021/09/02 03:38:12;;;;;;;13.23;8.45;;;8.50;98.00;;;;;;5071257;28;20103;-72
2021/09/02 03:40:40;;;;;;;15.02;9.10;;;8.50;98.00;;;;;;5062283;28;20077;-71
2021/09/02 03:43:05;;;;;;;16.00;9.35;;;8.50;97.90;;;;;;5064853;28;20021;-71
2021/09/02 03:45:31;;;;;;;15.18;8.73;;;8.50;98.00;;;;;;5071740;28;20464;-71
2021/09/02 03:47:57;;;;;;;14.38;8.73;;;8.50;98.00;;;;;;5074832;28;20028;-71
2021/09/02 03:50:23;;;;;;;15.80;8.85;;;8.50;98.00;;;;;;5071490;28;20047;-72
2021/09/02 03:52:48;;;;;;;14.57;9.20;;;8.40;98.00;;;;;;5064389;28;20040;-71
2021/09/02 03:55:14;;;;;;;15.02;9.00;;;8.30;98.00;;;;;;5070675;28;20456;-72
2021/09/02 03:57:41;;;;;;;14.07;9.10;;;8.30;98.00;;;;;;5071971;28;20318;-71
2021/09/02 04:00:09;;;;;;;16.02;9.13;;;8.30;98.00;;;;;;5065507;28;20029;-71
2021/09/02 04:02:36;;;;;;;13.75;9.52;;;8.30;98.00;;;;;;5063053;28;20345;-71
2021/09/02 04:05:02;;;;;;;15.27;9.38;;;8.30;98.00;;;;;;5060326;28;20056;-71
2021/09/02 04:07:27;;;;;;;13.98;8.75;;;8.40;98.00;;;;;;5058008;28;20036;-71
2021/09/02 04:09:53;;;;;;;14.85;9.20;;;8.30;98.00;;;;;;5058117;28;20090;-71
2021/09/02 04:12:19;;;;;;;16.73;8.93;;;8.30;98.00;;;;;;5063948;28;20024;-72
2021/09/02 04:14:44;;;;;;;13.18;8.48;;;8.20;98.00;;;;;;5065613;28;20037;-71
2021/09/02 04:17:10;;;;;;;15.75;8.60;;;8.20;98.00;;;;;;5065625;28;20025;-71
2021/09/02 04:19:36;;;;;;;16.70;9.30;;;8.20;98.00;;;;;;5067602;28;20024;-71
2021/09/02 04:22:02;;;;;;;18.23;9.18;;;8.10;98.00;;;;;;5061862;28;20052;-71
2021/09/02 04:24:27;;;;;;;13.55;8.75;;;8.20;97.90;;;;;;5072481;28;20107;-71
2021/09/02 04:26:56;;;;;;;16.00;9.50;;;8.20;98.00;;;;;;5065841;28;20429;-72
2021/09/02 04:29:24;;;;;;;13.98;8.40;;;8.10;98.00;;;;;;5069644;28;20059;-71
2021/09/02 04:31:50;;;;;;;15.75;9.85;;;8.10;98.00;;;;;;5062199;28;20032;-71
2021/09/02 04:34:15;;;;;;;15.70;9.10;;;8.00;98.00;;;;;;5075974;28;20032;-71
2021/09/02 04:36:41;;;;;;;15.25;9.27;;;8.00;97.90;;;;;;5071382;28;20429;-72
2021/09/02 04:39:07;;;;;;;15.18;8.90;;;8.00;97.90;;;;;;5059090;28;20021;-71
2021/09/02 04:41:33;;;;;;;15.52;9.00;;;8.00;98.00;;;;;;5065963;28;20036;-71
2021/09/02 04:43:59;;;;;;;14.88;9.35;;;7.90;97.70;;;;;;5067258;28;20012;-71
2021/09/02 04:46:25;;;;;;;14.82;8.93;;;7.90;97.50;;;;;;5072120;28;20051;-71
2021/09/02 04:48:50;;;;;;;18.23;9.40;;;8.00;97.50;;;;;;5071184;28;20448;-71
2021/09/02 04:51:16;;;;;;;14.63;9.02;;;7.90;97.00;;;;;;5061956;28;20032;-71
2021/09/02 04:53:45;;;;;;;15.63;9.30;;;8.10;97.00;;;;;;5062295;28;20036;-71
2021/09/02 04:56:11;;;;;;;14.30;9.18;;;8.10;96.90;;;;;;5061987;28;20078;-71
2021/09/02 04:58:38;;;;;;;15.23;8.75;;;8.10;97.30;;;;;;5070150;28;20422;-71
2021/09/02 05:01:04;;;;;;;18.83;9.48;;;8.10;96.80;;;;;;5069216;28;20028;-70
2021/09/02 05:03:30;;;;;;;16.35;8.98;;;8.20;97.00;;;;;;5073019;28;20028;-70
2021/09/02 05:05:56;;;;;;;17.27;9.50;;;8.20;97.20;;;;;;5070721;28;20044;-70
2021/09/02 05:08:22;;;;;;;16.17;9.27;;;8.20;97.10;;;;;;5061978;28;20032;-70
2021/09/02 05:10:48;;;;;;;15.52;9.75;;;8.30;97.10;;;;;;5065473;28;20025;-71
2021/09/02 05:13:14;;;;;;;18.25;9.57;;;8.30;97.10;;;;;;5071588;28;20414;-72
2021/09/02 05:15:40;;;;;;;16.15;9.18;;;8.30;97.70;;;;;;5060387;28;20059;-71
2021/09/02 05:18:06;;;;;;;14.73;8.68;;;8.20;97.60;;;;;;5068870;28;20029;-70
2021/09/02 05:20:31;;;;;;;17.38;9.50;;;8.20;97.60;;;;;;5070237;28;20033;-71
2021/09/02 05:22:57;;;;;;;21.05;8.93;;;8.20;97.50;;;;;;5055263;28;20330;-72
2021/09/02 05:25:23;;;;;;;12.60;8.38;;;8.30;96.80;;;;;;5071715;28;20095;-72
2021/09/02 05:27:48;;;;;;;13.80;8.65;;;8.30;97.10;;;;;;5067605;28;20021;-71
2021/09/02 05:30:14;;;;;;;15.57;8.45;;;8.40;97.50;;;;;;5067400;28;20051;-71
2021/09/02 05:32:40;;;;;;;13.20;8.57;;;8.40;97.80;;;;;;5075590;28;20035;-71
2021/09/02 05:35:07;;;;;;;14.52;8.20;;;8.50;98.00;;;;;;5064176;28;20041;-72
2021/09/02 05:37:33;;;;;;;12.75;8.32;;;8.40;98.00;;;;;;5059320;28;20025;-71
2021/09/02 05:39:59;;;;;;;13.45;8.18;;;8.40;98.00;;;;;;5061776;28;20040;-71
2021/09/02 05:42:24;;;;;;;18.17;8.52;;;8.30;98.00;;;;;;5063463;28;20024;-71
2021/09/02 05:44:50;;;;;;;13.48;8.35;;;8.30;98.00;;;;;;5061128;28;20032;-72
2021/09/02 05:47:16;;;;;;;17.10;9.10;;;8.50;97.80;;;;;;5077625;28;20098;-71
2021/09/02 05:49:41;;;;;;;13.13;9.10;;;8.60;97.50;;;;;;5072717;28;20128;-71
2021/09/02 05:52:07;;;;;;;14.05;8.55;;;8.80;97.60;;;;;;5067480;28;20051;-72
2021/09/02 05:54:33;;;;;;;12.38;7.60;;;8.90;97.80;;;;;;5077437;28;20032;-71
2021/09/02 05:56:58;;;;;;;12.32;7.90;;;9.10;97.60;;;;;;5075175;28;20032;-71
2021/09/02 05:59:24;;;;;;;13.32;7.82;;;9.20;98.00;;;;;;5076187;28;20028;-71
2021/09/02 06:01:50;;;;;;;14.43;8.30;;;9.30;98.00;;;;;;5066784;28;20033;-71
2021/09/02 06:04:15;;;;;;;13.10;8.23;;;9.40;98.00;;;;;;5073219;28;20477;-71
2021/09/02 06:06:41;;;;;;;14.45;8.65;;;9.50;98.00;;;;;;5077584;28;20054;-71
2021/09/02 06:09:07;;;;;;;15.95;8.05;;;9.60;98.00;;;;;;5077847;28;20428;-71
2021/09/02 06:11:34;;;;;;;12.25;7.75;;;9.70;98.00;;;;;;5064947;28;20060;-71
2021/09/02 06:13:59;;;;;;;15.25;8.35;;;9.80;98.00;;;;;;5076206;28;20061;-72
2021/09/02 06:16:25;;;;;;;12.20;8.00;;;10.40;98.00;;;;;;5071547;28;20025;-70
2021/09/02 06:18:51;;;;;;;12.82;8.20;;;11.10;98.00;;;;;;5077942;28;20060;-71
2021/09/02 06:21:16;;;;;;;11.40;7.43;;;11.90;98.00;;;;;;5067930;28;20025;-72
2021/09/02 06:23:42;;;;;;;12.63;7.03;;;12.50;98.00;;;;;;5064906;28;20049;-71
2021/09/02 06:26:08;;;;;;;10.18;6.45;;;13.00;98.00;;;;;;5065601;28;20029;-72
2021/09/02 06:28:34;;;;;;;10.38;5.97;;;13.40;98.00;;;;;;5078580;28;20067;-72
2021/09/02 06:30:59;;;;;;;11.63;6.35;;;13.50;98.00;;;;;;5068396;28;20089;-71
2021/09/02 06:33:25;;;;;;;14.45;7.70;;;13.20;98.00;;;;;;5061573;28;20047;-71
2021/09/02 06:35:51;;;;;;;12.57;7.55;;;12.70;98.00;;;;;;5072887;28;20052;-72
2021/09/02 06:38:16;;;;;;;12.65;7.70;;;12.30;98.00;;;;;;5069956;28;20047;-72
2021/09/02 06:40:42;;;;;;;12.23;7.20;;;12.10;98.00;;;;;;5069937;28;20439;-71
2021/09/02 06:43:08;;;;;;;13.20;7.10;;;12.10;98.00;;;;;;5065395;28;20025;-71
2021/09/02 06:45:34;;;;;;;12.45;7.55;;;12.10;98.00;;;;;;5061739;28;20031;-71
2021/09/02 06:47:59;;;;;;;12.50;7.15;;;12.10;98.00;;;;;;5074273;28;20066;-72
2021/09/02 06:50:25;;;;;;;12.40;7.50;;;12.10;98.00;;;;;;5070884;28;20028;-71
2021/09/02 06:52:51;;;;;;;11.50;7.00;;;12.20;98.00;;;;;;5076050;28;20093;-71
2021/09/02 06:55:17;;;;;;;13.90;7.15;;;12.30;98.00;;;;;;5071915;28;20028;-72
2021/09/02 06:57:43;;;;;;;10.90;6.60;;;12.50;98.00;;;;;;5066887;28;20029;-72
2021/09/02 07:00:10;;;;;;;11.60;6.82;;;12.60;98.00;;;;;;5073285;28;20029;-72
2021/09/02 07:02:36;;;;;;;10.68;6.55;;;12.80;98.00;;;;;;5063879;28;20111;-72
2021/09/02 07:05:04;;;;;;;10.98;6.25;;;12.80;98.00;;;;;;5076774;28;20064;-72
2021/09/02 07:07:30;;;;;;;12.23;6.47;;;12.90;98.00;;;;;;5070119;28;20035;-71
2021/09/02 07:09:56;;;;;;;11.07;6.88;;;13.10;98.00;;;;;;5076342;28;20032;-72
2021/09/02 07:12:21;;;;;;;11.10;6.38;;;13.30;98.00;;;;;;5073642;28;20124;-71
2021/09/02 07:14:47;;;;;;;13.43;6.38;;;13.50;98.00;;;;;;5069546;28;20052;-71
2021/09/02 07:17:13;;;;;;;12.43;6.57;;;13.60;98.00;;;;;;5063416;28;20036;-72
2021/09/02 07:19:38;;;;;;;10.10;6.07;;;13.70;98.00;;;;;;5069335;28;20051;-72
2021/09/02 07:22:04;;;;;;;9.20;5.65;;;13.80;98.00;;;;;;5064078;28;20345;-72
2021/09/02 07:24:29;;;;;;;13.00;6.75;;;13.80;98.00;;;;;;5067648;28;20048;-72
2021/09/02 07:26:55;;;;;;;9.95;5.40;;;13.80;98.00;;;;;;5072293;28;20024;-72
2021/09/02 07:29:21;;;;;;;10.52;5.32;;;14.00;98.00;;;;;;5072014;28;20028;-72
2021/09/02 07:31:46;;;;;;;12.40;7.00;;;14.00;98.00;;;;;;5069699;28;20032;-71
2021/09/02 07:34:15;;;;;;;10.88;6.22;;;14.20;98.00;;;;;;5064955;28;20326;-72
2021/09/02 07:36:41;;;;;;;9.45;5.65;;;14.30;98.00;;;;;;5074620;28;20032;-72
2021/09/02 07:39:07;;;;;;;12.07;5.75;;;14.40;98.00;;;;;;5072858;28;20334;-72
2021/09/02 07:41:34;;;;;;;9.82;5.55;;;14.50;97.30;;;;;;5076629;28;20035;-71
2021/09/02 07:44:00;;;;;;;9.90;5.82;;;14.70;95.90;;;;;;5064642;28;20021;-72
2021/09/02 07:46:26;;;;;;;12.68;6.63;;;14.70;97.10;;;;;;5074207;28;20029;-72
2021/09/02 07:48:51;;;;;;;10.18;6.38;;;14.80;95.60;;;;;;5063903;28;20021;-72
2021/09/02 07:51:19;;;;;;;13.00;6.45;;;14.90;96.60;;;;;;5069580;28;20029;-71
2021/09/02 07:53:44;;;;;;;11.57;6.93;;;15.00;96.20;;;;;;5065711;28;20020;-71
2021/09/02 07:56:10;;;;;;;12.27;6.78;;;15.20;96.80;;;;;;5072985;28;20039;-71
2021/09/02 07:58:36;;;;;;;13.23;6.95;;;15.40;95.90;;;;;;5082589;28;20034;-71
2021/09/02 08:01:03;;;;;;;11.38;7.10;;;15.70;95.20;;;;;;5058315;28;20032;-71
2021/09/02 08:03:28;;;;;;;11.25;6.72;;;16.10;92.70;;;;;;5070154;28;20444;-71
2021/09/02 08:05:54;;;;;;;12.55;6.50;;;16.90;92.00;;;;;;5075356;28;20041;-72
2021/09/02 08:08:20;;;;;;;9.80;5.53;;;18.20;87.70;;;;;;5071330;28;20060;-72
2021/09/02 08:10:48;;;;;;;11.50;5.80;;;19.10;86.40;;;;;;5069445;28;20040;-72
2021/09/02 08:13:16;;;;;;;9.45;5.88;;;20.20;83.00;;;;;;5066297;28;20017;-72
2021/09/02 08:15:41;;;;;;;9.77;5.50;;;21.30;79.50;;;;;;5084742;28;20115;-72
2021/09/02 08:18:08;;;;;;;9.27;5.32;;;21.40;78.10;;;;;;5073511;28;20104;-72
2021/09/02 08:20:35;;;;;;;8.70;5.00;;;21.00;79.30;;;;;;5068319;28;20029;-71
2021/09/02 08:23:02;;;;;;;9.80;5.25;;;21.20;78.90;;;;;;5075364;28;20032;-70
2021/09/02 08:25:27;;;;;;;8.70;5.28;;;22.00;77.20;;;;;;5064837;28;20570;-71
2021/09/02 08:27:53;;;;;;;7.07;4.03;;;22.50;73.20;;;;;;5074223;28;20068;-70
2021/09/02 08:30:22;;;;;;;8.55;4.28;;;22.90;72.00;;;;;;5076345;28;20417;-71
2021/09/02 08:32:48;;;;;;;8.30;4.70;;;22.90;73.00;;;;;;5073856;28;20062;-71
2021/09/02 08:35:22;;;;;;;7.95;4.40;;;23.50;72.00;;;;;;5075536;28;20021;-72
2021/09/02 08:37:54;;;;;;;9.35;4.60;;;23.10;73.20;;;;;;5065418;28;20033;-71
2021/09/02 08:40:24;;;;;;;9.27;4.88;;;23.20;74.80;;;;;;5058894;28;20024;-71
2021/09/02 08:42:50;;;;;;;8.63;4.63;;;23.00;73.30;;;;;;5060516;28;20029;-72
2021/09/02 08:45:16;;;;;;;7.88;4.35;;;22.70;74.50;;;;;;5065371;28;20020;-71
2021/09/02 08:47:47;;;;;;;7.13;4.00;;;21.80;71.40;;;;;;5074946;28;20085;-72
2021/09/02 08:50:15;;;;;;;9.70;4.22;;;22.10;72.10;;;;;;5069670;28;20027;-71
2021/09/02 08:52:41;;;;;;;6.63;3.78;;;23.10;73.10;;;;;;5069354;28;20081;-70
2021/09/02 08:55:08;;;;;;;7.70;3.53;;;23.00;71.60;;;;;;5064439;28;20048;-71
2021/09/02 08:57:33;;;;;;;6.93;3.70;;;23.70;69.10;;;;;;5071422;28;20028;-71
2021/09/02 08:59:59;;;;;;;7.60;3.83;;;23.30;67.90;;;;;;5074719;28;20369;-71
2021/09/02 09:02:31;;;;;;;8.00;3.58;;;23.20;70.10;;;;;;5061410;28;20029;-72
2021/09/02 09:05:01;;;;;;;6.75;3.90;;;24.10;67.30;;;;;;5074485;28;20048;-71
2021/09/02 09:07:50;;;;;;;6.90;3.50;;;23.30;65.40;;;;;;5076336;28;20302;-71
2021/09/02 09:10:21;;;;;;;7.43;3.75;;;23.90;67.70;;;;;;5066186;28;20353;-72
2021/09/02 09:12:52;;;;;;;5.97;3.22;;;24.20;64.90;;;;;;5075177;28;20024;-71
2021/09/02 09:15:21;;;;;;;7.45;3.70;;;24.50;64.90;;;;;;5079807;28;20180;-72
2021/09/02 09:17:50;;;;;;;7.40;3.72;;;24.90;64.60;;;;;;5079976;28;20052;-72
2021/09/02 09:20:18;;;;;;;6.97;3.25;;;24.80;63.40;;;;;;5070938;28;20462;-72
2021/09/02 09:22:49;;;;;;;7.82;3.88;;;24.60;65.00;;;;;;5071690;28;20742;-72
2021/09/02 09:25:16;;;;;;;7.13;3.85;;;25.30;62.50;;;;;;5079166;28;20078;-71
2021/09/02 09:27:54;;;;;;;7.07;3.40;;;25.00;64.00;;;;;;5081480;28;20021;-71
2021/09/02 09:30:23;;;;;;;6.60;3.17;;;25.10;64.80;;;;;;5077191;28;20036;-72
2021/09/02 09:32:53;;;;;;;7.50;3.90;;;25.70;62.50;;;;;;5076499;28;20021;-72
2021/09/02 09:35:30;;;;;;;6.55;3.50;;;25.40;62.70;;;;;;5080414;28;20025;-72
2021/09/02 09:38:10;;;;;;;7.80;3.78;;;24.70;62.80;;;;;;5080306;28;20416;-72
2021/09/02 09:40:39;;;;;;;7.80;3.47;;;24.30;63.80;;;;;;5079498;28;20027;-73
2021/09/02 09:43:16;;;;;;;9.68;3.42;;;24.40;65.20;;;;;;5066426;28;20013;-71
2021/09/02 09:45:47;;;;;;;6.47;3.90;;;24.40;64.00;;;;;;5062167;28;20032;-71
2021/09/02 09:48:22;;;;;;;7.45;3.67;;;24.40;64.30;;;;;;5068588;28;20028;-69
2021/09/02 09:51:09;;;;;;;6.63;3.60;;;25.00;64.20;;;;;;5076802;28;20433;-72
2021/09/02 09:53:35;;;;;;;6.68;3.55;;;25.00;62.60;;;;;;5073692;28;20256;-70
2021/09/02 09:56:04;;;;;;;7.85;3.80;;;25.00;62.20;;;;;;5080872;28;20025;-71
2021/09/02 09:58:30;;;;;;;7.10;3.70;;;24.50;63.90;;;;;;5080246;28;20056;-70
2021/09/02 10:01:04;;;;;;;7.55;3.88;;;25.20;62.20;;;;;;5073607;28;20067;-70
2021/09/02 10:03:32;;;;;;;6.32;3.38;;;25.00;62.70;;;;;;5080339;28;20016;-72
2021/09/02 10:06:09;;;;;;;8.35;3.70;;;25.20;63.50;;;;;;5080259;28;20472;-72
2021/09/02 10:08:40;;;;;;;6.47;3.67;;;25.30;62.40;;;;;;5077343;28;20313;-71
2021/09/02 10:11:08;;;;;;;5.90;3.30;;;25.50;63.30;;;;;;5079850;28;20052;-71
2021/09/02 10:13:34;;;;;;;8.93;3.47;;;26.10;59.50;;;;;;5077685;28;20063;-71
2021/09/02 10:16:01;;;;;;;7.25;3.80;;;25.50;60.40;;;;;;5077565;28;20029;-71
2021/09/02 10:18:29;;;;;;;7.90;3.70;;;25.00;63.80;;;;;;5067954;28;20086;-72
2021/09/02 10:20:56;;;;;;;6.85;3.47;;;25.90;62.30;;;;;;5078277;28;20313;-72
2021/09/02 10:23:25;;;;;;;6.72;3.88;;;26.40;61.80;;;;;;5064609;28;20029;-72
2021/09/02 10:25:52;;;;;;;6.13;3.40;;;26.90;61.10;;;;;;5060476;28;20039;-71
2021/09/02 10:28:29;;;;;;;6.25;3.67;;;27.40;60.30;;;;;;5074880;28;20461;-71
2021/09/02 10:31:02;;;;;;;6.63;3.65;;;27.90;56.10;;;;;;5071965;28;20032;-71
2021/09/02 10:33:37;;;;;;;7.87;3.80;;;27.30;57.70;;;;;;5068240;28;20322;-71
2021/09/02 10:36:23;;;;;;;8.35;3.92;;;27.70;59.00;;;;;;5065389;28;20271;-71
2021/09/02 10:38:57;;;;;;;7.10;2.83;;;27.10;57.90;;;;;;5056894;28;20068;-70
2021/09/02 10:41:35;;;;;;;6.10;3.30;;;26.90;59.80;;;;;;5073031;28;20016;-70
2021/09/02 10:44:08;;;;;;;6.38;3.40;;;27.40;58.40;;;;;;5072123;28;20444;-70
2021/09/02 10:46:45;;;;;;;5.68;3.20;;;27.30;56.80;;;;;;5072966;28;20299;-71
2021/09/02 10:49:19;;;;;;;6.20;3.50;;;26.50;59.00;;;;;;5075001;28;20121;-70
2021/09/02 10:51:53;;;;;;;11.32;4.13;;;26.90;59.00;;;;;;5059348;28;20021;-70
2021/09/02 10:54:30;;;;;;;7.07;3.65;;;27.10;59.30;;;;;;5058739;28;20025;-70
2021/09/02 10:57:07;;;;;;;6.80;3.40;;;27.10;57.80;;;;;;5075558;28;20031;-70
2021/09/02 10:59:41;;;;;;;9.52;4.20;;;27.00;58.60;;;;;;5065835;28;20021;-72
2021/09/02 11:02:09;;;;;;;5.90;3.30;;;26.90;59.50;;;;;;5077821;28;20100;-72
2021/09/02 11:04:37;;;;;;;7.25;3.72;;;26.80;60.10;;;;;;5077692;28;20056;-71
2021/09/02 11:07:03;;;;;;;6.63;3.40;;;27.00;60.30;;;;;;5076512;28;20049;-71
2021/09/02 11:09:32;;;;;;;6.50;3.50;;;27.50;59.50;;;;;;5076013;28;20021;-71
2021/09/02 11:11:59;;;;;;;5.50;3.20;;;27.60;58.50;;;;;;5076749;28;20036;-71
2021/09/02 11:14:25;;;;;;;7.28;4.10;;;27.50;58.70;;;;;;5077540;28;20419;-71
2021/09/02 11:16:52;;;;;;;8.82;3.20;;;27.10;60.80;;;;;;5076741;28;20158;-71
2021/09/02 11:19:34;;;;;;;6.05;3.35;;;27.10;58.60;;;;;;5077181;28;20063;-71
2021/09/02 11:22:07;;;;;;;5.97;3.13;;;27.00;57.50;;;;;;5077414;28;20035;-72
2021/09/02 11:24:39;;;;;;;5.82;3.30;;;26.80;60.10;;;;;;5076204;28;20061;-71
2021/09/02 11:27:06;;;;;;;7.18;3.50;;;27.20;58.30;;;;;;5076390;28;20040;-72
2021/09/02 11:29:32;;;;;;;7.57;3.72;;;27.10;57.70;;;;;;5076839;28;20106;-72
2021/09/02 11:32:06;;;;;;;6.15;3.30;;;27.10;57.00;;;;;;5077352;28;20582;-72
2021/09/02 11:34:33;;;;;;;7.43;3.30;;;26.80;59.20;;;;;;5077106;28;20025;-71
2021/09/02 11:36:59;;;;;;;6.95;3.20;;;27.20;58.30;;;;;;5072742;28;20044;-72
2021/09/02 11:39:33;;;;;;;7.68;3.40;;;27.30;58.80;;;;;;5055780;28;20092;-71
2021/09/02 11:42:03;;;;;;;6.45;3.65;;;27.50;59.90;;;;;;5063789;28;20494;-72
2021/09/02 11:44:32;;;;;;;5.63;3.13;;;27.70;58.50;;;;;;5077011;28;20078;-72
2021/09/02 11:46:58;;;;;;;6.68;3.45;;;27.50;57.40;;;;;;5073882;28;20369;-72
2021/09/02 11:49:24;;;;;;;6.35;3.50;;;27.50;59.70;;;;;;5056887;28;20048;-72
2021/09/02 11:51:57;;;;;;;7.40;3.95;;;27.80;57.70;;;;;;5074865;28;20412;-71
2021/09/02 11:54:23;;;;;;;7.88;3.63;;;28.20;59.00;;;;;;5075510;28;20067;-71
2021/09/02 11:56:49;;;;;;;6.38;3.50;;;27.90;58.30;;;;;;5074857;28;20046;-72
2021/09/02 11:59:15;;;;;;;5.65;3.17;;;28.10;58.70;;;;;;5056921;28;20025;-72
2021/09/02 12:01:50;;;;;;;7.53;3.90;;;27.90;58.20;;;;;;5069979;28;20070;-72
2021/09/02 12:04:36;;;;;;;6.45;3.42;;;27.80;58.20;;;;;;5075916;28;20475;-72
2021/09/02 12:07:03;;;;;;;7.28;3.08;;;28.00;57.70;;;;;;5072865;28;20056;-72
2021/09/02 12:09:32;;;;;;;7.32;3.80;;;27.40;55.60;;;;;;5054433;28;20402;-71
2021/09/02 12:11:57;;;;;;;6.78;3.70;;;26.90;56.00;;;;;;5056648;28;20299;-71
2021/09/02 12:14:26;;;;;;;8.02;4.00;;;26.30;57.20;;;;;;5060879;28;20037;-71
2021/09/02 12:17:08;;;;;;;6.63;3.47;;;25.90;58.00;;;;;;5060708;28;20350;-71
2021/09/02 12:19:54;;;;;;;7.00;3.47;;;26.20;60.10;;;;;;5070354;28;20059;-71
2021/09/02 12:22:23;;;;;;;6.53;3.53;;;26.40;57.70;;;;;;5068096;28;20480;-72
2021/09/02 12:24:49;;;;;;;6.75;3.63;;;26.40;59.40;;;;;;5068622;28;20501;-72
2021/09/02 12:27:15;;;;;;;7.03;3.50;;;26.40;57.40;;;;;;5075216;28;20150;-71
2021/09/02 12:29:49;;;;;;;7.03;3.38;;;26.50;57.80;;;;;;5074165;28;20035;-71
2021/09/02 12:32:17;;;;;;;7.30;3.63;;;26.70;58.70;;;;;;5074863;28;20033;-72
2021/09/02 12:34:43;;;;;;;6.65;3.65;;;26.70;58.60;;;;;;5067534;28;20028;-72
2021/09/02 12:37:10;;;;;;;6.43;3.45;;;26.70;59.70;;;;;;5068606;28;20028;-72
2021/09/02 12:40:01;;;;;;;8.95;3.90;;;26.80;59.80;;;;;;5065033;28;20021;-72
2021/09/02 12:42:29;;;;;;;7.38;3.53;;;26.80;57.50;;;;;;5073854;28;20325;-71
2021/09/02 12:45:13;;;;;;;7.00;3.88;;;26.60;60.90;;;;;;5067984;28;20024;-72
2021/09/02 12:47:40;;;;;;;6.50;3.50;;;26.50;57.90;;;;;;5074667;28;20044;-72
2021/09/02 12:50:19;;;;;;;6.50;3.60;;;26.50;61.50;;;;;;5070786;28;20047;-72